Time;durP1;ratioP1;P1;durP2;ratioP2;P2;SDS_P1;SDS_P2;PMS_P1;PMS_P2;Temp;Humidity;BMP_temperature;BMP_pressure;BME280_temperature;BME280_humidity;BME280_pressure;Samples;Min_cycle;Max_cycle;Signal;HPM_P1;HPM_P2
2023/11/30 00:00:07;;;;;;;20.30;13.70;;;;;;;;;;690327;28;959;-68
2023/11/30 00:00:28;;;;;;;18.40;12.90;;;;;;;;;;690421;28;927;-69
2023/11/30 00:00:48;;;;;;;17.23;12.73;;;;;;;;;;687876;28;4262;-69
2023/11/30 00:01:09;;;;;;;17.00;12.53;;;;;;;;;;690686;28;1084;-69
2023/11/30 00:01:29;;;;;;;18.67;12.82;;;;;;;;;;690559;28;968;-69
2023/11/30 00:01:49;;;;;;;18.60;12.70;;;;;;;;;;689651;28;2210;-69
2023/11/30 00:02:10;;;;;;;17.07;13.17;;;;;;;;;;689329;28;1097;-69
2023/11/30 00:02:32;;;;;;;17.23;13.07;;;;;;;;;;690040;28;1059;-68
2023/11/30 00:02:52;;;;;;;16.63;12.40;;;;;;;;;;687022;28;2288;-68
2023/11/30 00:03:12;;;;;;;15.93;12.05;;;;;;;;;;687546;28;960;-68
2023/11/30 00:03:32;;;;;;;18.07;12.67;;;;;;;;;;687425;28;857;-69
2023/11/30 00:03:53;;;;;;;17.30;12.50;;;;;;;;;;685848;28;4283;-68
2023/11/30 00:04:13;;;;;;;17.48;12.82;;;;;;;;;;689355;28;951;-68
2023/11/30 00:04:34;;;;;;;16.83;12.77;;;;;;;;;;687782;28;824;-69
2023/11/30 00:04:54;;;;;;;17.38;12.55;;;;;;;;;;686317;28;2766;-69
2023/11/30 00:05:15;;;;;;;16.90;12.37;;;;;;;;;;687404;28;723;-69
2023/11/30 00:05:35;;;;;;;18.50;12.87;;;;;;;;;;688945;28;1905;-69
2023/11/30 00:05:56;;;;;;;20.13;13.13;;;;;;;;;;689756;28;2758;-69
2023/11/30 00:06:17;;;;;;;18.03;12.87;;;;;;;;;;689693;28;817;-68
2023/11/30 00:06:41;;;;;;;16.67;12.18;;;;;;;;;;687899;28;5701;-69
2023/11/30 00:07:03;;;;;;;16.60;12.43;;;;;;;;;;689738;28;1179;-68
2023/11/30 00:07:24;;;;;;;17.00;12.85;;;;;;;;;;690084;28;1284;-69
2023/11/30 00:07:45;;;;;;;18.75;13.15;;;;;;;;;;683852;28;1740;-69
2023/11/30 00:08:07;;;;;;;18.17;12.88;;;;;;;;;;684259;28;967;-69
2023/11/30 00:08:27;;;;;;;17.75;12.40;;;;;;;;;;684957;28;825;-69
2023/11/30 00:08:49;;;;;;;17.13;12.50;;;;;;;;;;686312;28;2276;-68
2023/11/30 00:09:10;;;;;;;18.73;12.60;;;;;;;;;;686703;28;1348;-68
2023/11/30 00:09:31;;;;;;;17.83;12.57;;;;;;;;;;687617;28;821;-69
2023/11/30 00:09:51;;;;;;;17.73;12.83;;;;;;;;;;688907;28;4353;-69
2023/11/30 00:10:11;;;;;;;19.13;13.70;;;;;;;;;;690347;28;742;-69
2023/11/30 00:10:32;;;;;;;21.13;13.87;;;;;;;;;;689401;28;1213;-68
2023/11/30 00:10:52;;;;;;;20.23;13.53;;;;;;;;;;689068;28;2322;-68
2023/11/30 00:11:12;;;;;;;18.50;13.57;;;;;;;;;;690405;28;988;-68
2023/11/30 00:11:33;;;;;;;18.33;13.50;;;;;;;;;;690030;28;959;-68
2023/11/30 00:11:53;;;;;;;19.33;13.60;;;;;;;;;;688788;28;1856;-69
2023/11/30 00:12:13;;;;;;;18.90;13.40;;;;;;;;;;690392;28;877;-69
2023/11/30 00:12:33;;;;;;;17.13;13.13;;;;;;;;;;689958;28;1199;-69
2023/11/30 00:12:54;;;;;;;17.97;13.20;;;;;;;;;;689036;28;4233;-69
2023/11/30 00:13:14;;;;;;;18.90;12.65;;;;;;;;;;688604;28;794;-69
2023/11/30 00:13:35;;;;;;;19.00;12.90;;;;;;;;;;689800;28;1116;-68
2023/11/30 00:13:55;;;;;;;18.80;12.97;;;;;;;;;;689353;28;1007;-69
2023/11/30 00:14:15;;;;;;;19.15;12.80;;;;;;;;;;689738;28;1268;-69
2023/11/30 00:14:35;;;;;;;20.27;13.30;;;;;;;;;;688374;28;1460;-69
2023/11/30 00:14:56;;;;;;;19.80;13.33;;;;;;;;;;688896;28;1374;-69
2023/11/30 00:15:16;;;;;;;19.17;12.88;;;;;;;;;;690168;28;1063;-69
2023/11/30 00:15:36;;;;;;;17.63;12.67;;;;;;;;;;688363;28;4426;-69
2023/11/30 00:15:57;;;;;;;16.80;12.57;;;;;;;;;;690030;28;1325;-69
2023/11/30 00:16:17;;;;;;;16.55;12.38;;;;;;;;;;690278;28;826;-68
2023/11/30 00:16:37;;;;;;;15.37;12.07;;;;;;;;;;688481;28;2339;-69
2023/11/30 00:16:57;;;;;;;17.17;12.43;;;;;;;;;;690377;28;920;-68
2023/11/30 00:17:18;;;;;;;18.20;12.40;;;;;;;;;;690408;28;805;-69
2023/11/30 00:17:38;;;;;;;18.07;12.30;;;;;;;;;;688762;28;910;-69
2023/11/30 00:17:58;;;;;;;17.93;12.67;;;;;;;;;;690233;28;853;-68
2023/11/30 00:18:19;;;;;;;16.03;12.40;;;;;;;;;;690183;28;1006;-69
2023/11/30 00:18:39;;;;;;;17.80;12.87;;;;;;;;;;688296;28;4219;-69
2023/11/30 00:19:00;;;;;;;18.40;13.25;;;;;;;;;;690194;28;888;-69
2023/11/30 00:19:20;;;;;;;18.43;13.00;;;;;;;;;;689817;28;1222;-68
2023/11/30 00:19:40;;;;;;;18.38;12.70;;;;;;;;;;687285;28;1484;-69
2023/11/30 00:20:01;;;;;;;16.60;12.47;;;;;;;;;;689358;28;3583;-69
2023/11/30 00:20:21;;;;;;;17.77;12.67;;;;;;;;;;690247;28;786;-69
2023/11/30 00:20:41;;;;;;;17.02;12.68;;;;;;;;;;689263;28;1546;-68
2023/11/30 00:21:02;;;;;;;18.27;12.77;;;;;;;;;;690753;28;995;-68
2023/11/30 00:21:22;;;;;;;16.75;12.02;;;;;;;;;;685629;28;1541;-69
2023/11/30 00:21:42;;;;;;;18.37;12.30;;;;;;;;;;683572;28;4323;-68
2023/11/30 00:22:03;;;;;;;19.07;12.77;;;;;;;;;;684673;28;877;-68
2023/11/30 00:22:23;;;;;;;18.48;12.60;;;;;;;;;;685092;28;968;-69
2023/11/30 00:22:43;;;;;;;16.93;12.23;;;;;;;;;;686810;28;2433;-69
2023/11/30 00:23:04;;;;;;;15.90;11.63;;;;;;;;;;684734;28;1472;-69
2023/11/30 00:23:24;;;;;;;16.50;11.63;;;;;;;;;;689877;28;1355;-69
2023/11/30 00:23:44;;;;;;;16.53;11.70;;;;;;;;;;688025;28;951;-69
2023/11/30 00:24:04;;;;;;;16.70;11.83;;;;;;;;;;688022;28;853;-68
2023/11/30 00:24:25;;;;;;;16.17;11.90;;;;;;;;;;689155;28;1580;-69
2023/11/30 00:24:45;;;;;;;17.47;12.67;;;;;;;;;;685817;28;4248;-68
2023/11/30 00:25:05;;;;;;;17.77;12.70;;;;;;;;;;689575;28;1254;-69
2023/11/30 00:25:26;;;;;;;17.87;12.70;;;;;;;;;;690275;28;848;-69
2023/11/30 00:25:46;;;;;;;17.33;12.57;;;;;;;;;;690335;28;1007;-69
2023/11/30 00:26:07;;;;;;;16.80;11.90;;;;;;;;;;689329;28;1318;-69
2023/11/30 00:26:28;;;;;;;16.35;12.10;;;;;;;;;;686660;28;820;-68
2023/11/30 00:26:51;;;;;;;17.73;12.30;;;;;;;;;;686076;28;1454;-68
2023/11/30 00:27:11;;;;;;;18.02;12.48;;;;;;;;;;686744;28;885;-68
2023/11/30 00:27:31;;;;;;;17.13;12.30;;;;;;;;;;687432;28;851;-69
2023/11/30 00:27:51;;;;;;;18.13;11.93;;;;;;;;;;685960;28;4310;-69
2023/11/30 00:28:12;;;;;;;17.35;11.80;;;;;;;;;;684604;28;1304;-69
2023/11/30 00:28:32;;;;;;;17.40;12.20;;;;;;;;;;687095;28;1167;-69
2023/11/30 00:28:52;;;;;;;17.93;12.67;;;;;;;;;;685434;28;1864;-68
2023/11/30 00:29:13;;;;;;;17.73;12.10;;;;;;;;;;681950;28;1030;-69
2023/11/30 00:29:33;;;;;;;19.20;12.10;;;;;;;;;;687349;28;1360;-69
2023/11/30 00:29:53;;;;;;;17.87;11.77;;;;;;;;;;685221;28;1152;-69
2023/11/30 00:30:13;;;;;;;17.02;11.75;;;;;;;;;;687495;28;1144;-69
2023/11/30 00:30:34;;;;;;;18.23;12.63;;;;;;;;;;689805;28;860;-69
2023/11/30 00:30:54;;;;;;;17.48;12.30;;;;;;;;;;685636;28;4537;-69
2023/11/30 00:31:15;;;;;;;18.97;12.83;;;;;;;;;;685816;28;1388;-69
2023/11/30 00:31:35;;;;;;;18.05;12.45;;;;;;;;;;684643;28;1335;-69
2023/11/30 00:31:55;;;;;;;17.87;12.40;;;;;;;;;;680837;28;2455;-69
2023/11/30 00:32:15;;;;;;;18.63;12.93;;;;;;;;;;682116;29;782;-69
2023/11/30 00:32:36;;;;;;;17.57;12.33;;;;;;;;;;681944;28;870;-69
2023/11/30 00:32:57;;;;;;;17.33;12.27;;;;;;;;;;683385;28;2349;-69
2023/11/30 00:33:17;;;;;;;17.03;12.17;;;;;;;;;;684616;28;787;-69
2023/11/30 00:33:37;;;;;;;17.97;12.43;;;;;;;;;;683434;28;4438;-69
2023/11/30 00:33:58;;;;;;;18.08;12.00;;;;;;;;;;683648;28;766;-69
2023/11/30 00:34:19;;;;;;;16.80;12.20;;;;;;;;;;687398;28;778;-69
2023/11/30 00:34:39;;;;;;;17.00;11.73;;;;;;;;;;683749;28;2416;-69
2023/11/30 00:34:59;;;;;;;17.70;11.97;;;;;;;;;;685436;28;1216;-69
2023/11/30 00:35:19;;;;;;;17.67;12.43;;;;;;;;;;683596;28;1607;-69
2023/11/30 00:35:40;;;;;;;19.07;12.47;;;;;;;;;;688388;28;1169;-69
2023/11/30 00:36:00;;;;;;;18.40;12.30;;;;;;;;;;688981;28;1155;-69
2023/11/30 00:36:21;;;;;;;15.40;11.50;;;;;;;;;;685116;28;1326;-69
2023/11/30 00:36:41;;;;;;;15.75;11.80;;;;;;;;;;685490;28;4689;-69
2023/11/30 00:37:02;;;;;;;17.57;12.13;;;;;;;;;;686989;28;1190;-69
2023/11/30 00:37:22;;;;;;;16.60;11.88;;;;;;;;;;686207;28;893;-71
2023/11/30 00:37:42;;;;;;;17.23;12.20;;;;;;;;;;684948;28;2186;-69
2023/11/30 00:38:03;;;;;;;16.93;12.13;;;;;;;;;;687051;28;1384;-69
2023/11/30 00:38:23;;;;;;;16.43;12.23;;;;;;;;;;685315;28;960;-69
2023/11/30 00:38:43;;;;;;;17.00;12.27;;;;;;;;;;685909;28;5713;-69
2023/11/30 00:39:04;;;;;;;16.00;12.02;;;;;;;;;;687046;28;1282;-69
2023/11/30 00:39:24;;;;;;;15.68;12.18;;;;;;;;;;684177;28;1159;-69
2023/11/30 00:39:45;;;;;;;16.77;11.87;;;;;;;;;;683890;28;4327;-69
2023/11/30 00:40:06;;;;;;;16.53;12.20;;;;;;;;;;684792;28;826;-69
2023/11/30 00:40:26;;;;;;;18.15;12.63;;;;;;;;;;684679;28;740;-69
2023/11/30 00:40:46;;;;;;;18.17;12.15;;;;;;;;;;683618;28;2174;-69
2023/11/30 00:41:12;;;;;;;18.23;12.23;;;;;;;;;;686050;28;936;-69
2023/11/30 00:41:33;;;;;;;18.13;12.23;;;;;;;;;;688987;28;1582;-69
2023/11/30 00:41:53;;;;;;;17.93;12.47;;;;;;;;;;688697;28;2326;-69
2023/11/30 00:42:13;;;;;;;17.37;12.30;;;;;;;;;;687455;28;1315;-69
2023/11/30 00:42:33;;;;;;;17.33;12.70;;;;;;;;;;684775;28;1300;-69
2023/11/30 00:42:54;;;;;;;17.42;12.30;;;;;;;;;;682732;28;4289;-69
2023/11/30 00:43:19;;;;;;;18.42;12.23;;;;;;;;;;685031;28;1411;-69
2023/11/30 00:43:39;;;;;;;18.25;12.15;;;;;;;;;;683486;28;2432;-69
2023/11/30 00:43:59;;;;;;;17.17;11.87;;;;;;;;;;685078;28;717;-69
2023/11/30 00:44:21;;;;;;;17.27;11.93;;;;;;;;;;688180;28;818;-69
2023/11/30 00:44:41;;;;;;;17.00;11.63;;;;;;;;;;688544;28;2303;-69
2023/11/30 00:45:01;;;;;;;16.03;11.93;;;;;;;;;;686669;28;1290;-69
2023/11/30 00:45:22;;;;;;;16.38;11.95;;;;;;;;;;687483;28;901;-69
2023/11/30 00:45:42;;;;;;;16.07;11.57;;;;;;;;;;688270;28;4329;-69
2023/11/30 00:46:04;;;;;;;15.63;11.02;;;;;;;;;;687179;28;935;-69
2023/11/30 00:46:24;;;;;;;15.43;11.07;;;;;;;;;;687516;28;1248;-69
2023/11/30 00:46:44;;;;;;;17.73;11.73;;;;;;;;;;686476;28;2195;-69
2023/11/30 00:47:05;;;;;;;17.47;11.83;;;;;;;;;;684535;28;1165;-69
2023/11/30 00:47:25;;;;;;;16.90;11.63;;;;;;;;;;684390;28;849;-69
2023/11/30 00:47:45;;;;;;;15.97;11.47;;;;;;;;;;681892;28;1567;-69
2023/11/30 00:48:06;;;;;;;16.00;11.73;;;;;;;;;;683774;28;1359;-69
2023/11/30 00:48:26;;;;;;;16.70;11.98;;;;;;;;;;684653;28;1143;-69
2023/11/30 00:48:47;;;;;;;16.23;11.60;;;;;;;;;;683462;28;4312;-70
2023/11/30 00:49:08;;;;;;;16.63;11.80;;;;;;;;;;685081;28;1485;-69
2023/11/30 00:49:28;;;;;;;15.98;11.18;;;;;;;;;;685513;28;1047;-69
2023/11/30 00:49:48;;;;;;;17.10;11.93;;;;;;;;;;686504;28;2360;-69
2023/11/30 00:50:08;;;;;;;17.57;12.00;;;;;;;;;;686509;28;1350;-69
2023/11/30 00:50:29;;;;;;;18.52;11.65;;;;;;;;;;684686;28;1282;-69
2023/11/30 00:50:49;;;;;;;17.70;11.47;;;;;;;;;;684249;28;2397;-69
2023/11/30 00:51:10;;;;;;;17.08;11.52;;;;;;;;;;685421;28;1212;-69
2023/11/30 00:51:31;;;;;;;17.55;11.60;;;;;;;;;;685908;28;1316;-69
2023/11/30 00:51:52;;;;;;;16.98;11.80;;;;;;;;;;683266;28;4525;-69
2023/11/30 00:52:13;;;;;;;17.07;11.90;;;;;;;;;;684010;28;1391;-69
2023/11/30 00:52:33;;;;;;;18.17;12.52;;;;;;;;;;686033;28;731;-69
2023/11/30 00:52:53;;;;;;;16.80;12.10;;;;;;;;;;684866;28;2134;-69
2023/11/30 00:53:14;;;;;;;16.67;11.97;;;;;;;;;;688772;28;860;-69
2023/11/30 00:53:34;;;;;;;17.45;12.63;;;;;;;;;;686773;28;1234;-69
2023/11/30 00:53:54;;;;;;;17.93;12.80;;;;;;;;;;689085;28;2185;-69
2023/11/30 00:54:14;;;;;;;17.60;12.33;;;;;;;;;;689759;28;1293;-69
2023/11/30 00:54:35;;;;;;;17.95;12.52;;;;;;;;;;689819;28;1333;-69
2023/11/30 00:54:55;;;;;;;17.63;12.67;;;;;;;;;;686526;28;5803;-69
2023/11/30 00:55:15;;;;;;;16.73;11.90;;;;;;;;;;685541;28;920;-69
2023/11/30 00:55:36;;;;;;;16.88;11.98;;;;;;;;;;684343;28;1306;-69
2023/11/30 00:55:56;;;;;;;19.17;12.30;;;;;;;;;;682656;28;2834;-69
2023/11/30 00:56:17;;;;;;;18.08;11.82;;;;;;;;;;681344;28;1226;-69
2023/11/30 00:56:38;;;;;;;17.27;11.82;;;;;;;;;;684175;28;939;-69
2023/11/30 00:56:58;;;;;;;18.00;12.68;;;;;;;;;;686217;28;2365;-69
2023/11/30 00:57:19;;;;;;;16.90;12.13;;;;;;;;;;687441;28;765;-69
2023/11/30 00:57:39;;;;;;;17.20;12.27;;;;;;;;;;686196;28;4294;-69
2023/11/30 00:57:59;;;;;;;19.02;12.52;;;;;;;;;;688525;28;1446;-69
2023/11/30 00:58:19;;;;;;;17.93;12.63;;;;;;;;;;689961;28;931;-69
2023/11/30 00:58:39;;;;;;;18.37;12.40;;;;;;;;;;686456;28;1390;-69
2023/11/30 00:59:00;;;;;;;18.00;12.13;;;;;;;;;;688439;28;2299;-70
2023/11/30 00:59:20;;;;;;;17.47;12.00;;;;;;;;;;688597;28;885;-69
2023/11/30 00:59:41;;;;;;;16.37;12.00;;;;;;;;;;687214;28;1216;-69
2023/11/30 01:00:04;;;;;;;17.98;12.55;;;;;;;;;;684954;28;1215;-69
2023/11/30 01:00:24;;;;;;;19.20;12.98;;;;;;;;;;684599;28;1282;-69
2023/11/30 01:00:45;;;;;;;18.48;12.90;;;;;;;;;;682744;28;4408;-69
2023/11/30 01:01:05;;;;;;;17.37;12.90;;;;;;;;;;687689;28;901;-69
2023/11/30 01:01:26;;;;;;;18.63;12.43;;;;;;;;;;684743;28;1236;-69
2023/11/30 01:01:46;;;;;;;19.57;12.50;;;;;;;;;;684644;28;2392;-69
2023/11/30 01:02:06;;;;;;;17.90;12.50;;;;;;;;;;686224;28;2902;-69
2023/11/30 01:02:26;;;;;;;19.25;12.93;;;;;;;;;;685551;28;830;-69
2023/11/30 01:02:47;;;;;;;19.43;12.60;;;;;;;;;;686206;28;919;-69
2023/11/30 01:03:07;;;;;;;19.00;11.77;;;;;;;;;;685794;28;971;-69
2023/11/30 01:03:27;;;;;;;19.23;12.38;;;;;;;;;;687179;28;1621;-69
2023/11/30 01:03:48;;;;;;;18.40;12.37;;;;;;;;;;684655;28;4336;-69
2023/11/30 01:04:09;;;;;;;18.85;12.63;;;;;;;;;;687183;28;1462;-69
2023/11/30 01:04:30;;;;;;;17.75;12.48;;;;;;;;;;686893;28;1691;-69
2023/11/30 01:04:50;;;;;;;18.97;13.10;;;;;;;;;;685835;28;1859;-69
2023/11/30 01:05:11;;;;;;;19.17;13.30;;;;;;;;;;687358;28;996;-69
2023/11/30 01:05:31;;;;;;;19.67;13.02;;;;;;;;;;684472;28;1276;-69
2023/11/30 01:05:51;;;;;;;17.90;12.53;;;;;;;;;;686244;28;1788;-69
2023/11/30 01:06:12;;;;;;;18.23;12.90;;;;;;;;;;686875;28;1028;-69
2023/11/30 01:06:32;;;;;;;18.60;12.77;;;;;;;;;;687160;28;842;-69
2023/11/30 01:06:53;;;;;;;20.13;13.15;;;;;;;;;;688588;28;4380;-69
2023/11/30 01:07:13;;;;;;;19.37;13.00;;;;;;;;;;686851;28;1354;-69
2023/11/30 01:07:33;;;;;;;19.80;12.90;;;;;;;;;;683681;28;1296;-69
2023/11/30 01:07:54;;;;;;;19.73;12.90;;;;;;;;;;685779;28;2119;-69
2023/11/30 01:08:14;;;;;;;17.92;12.85;;;;;;;;;;684143;28;1250;-70
2023/11/30 01:08:36;;;;;;;16.17;12.27;;;;;;;;;;683575;28;1181;-69
2023/11/30 01:08:56;;;;;;;18.83;12.80;;;;;;;;;;681970;28;1803;-69
2023/11/30 01:09:16;;;;;;;18.77;12.73;;;;;;;;;;683401;28;1437;-69
2023/11/30 01:09:38;;;;;;;18.90;12.80;;;;;;;;;;686456;28;4873;-69
2023/11/30 01:09:59;;;;;;;19.60;12.52;;;;;;;;;;686403;28;1518;-69
2023/11/30 01:10:20;;;;;;;20.80;13.17;;;;;;;;;;686468;28;1121;-69
2023/11/30 01:10:41;;;;;;;18.17;13.07;;;;;;;;;;687344;28;1164;-69
2023/11/30 01:11:01;;;;;;;17.67;12.82;;;;;;;;;;684359;28;1454;-69
2023/11/30 01:11:22;;;;;;;20.92;13.23;;;;;;;;;;684659;28;794;-69
2023/11/30 01:11:43;;;;;;;20.37;12.73;;;;;;;;;;681523;28;2105;-69
2023/11/30 01:12:03;;;;;;;19.58;12.65;;;;;;;;;;680503;28;1201;-69
2023/11/30 01:12:26;;;;;;;19.70;13.30;;;;;;;;;;683358;28;790;-69
2023/11/30 01:12:47;;;;;;;19.65;13.05;;;;;;;;;;681554;28;4431;-69
2023/11/30 01:13:07;;;;;;;21.30;13.40;;;;;;;;;;679955;28;869;-69
2023/11/30 01:13:28;;;;;;;19.67;13.03;;;;;;;;;;680214;29;1146;-69
2023/11/30 01:13:48;;;;;;;19.47;13.40;;;;;;;;;;682703;28;2550;-69
2023/11/30 01:14:08;;;;;;;18.67;12.82;;;;;;;;;;685707;28;766;-69
2023/11/30 01:14:29;;;;;;;19.73;13.10;;;;;;;;;;684326;28;1420;-70
2023/11/30 01:14:49;;;;;;;20.42;13.63;;;;;;;;;;683909;28;1466;-69
2023/11/30 01:15:09;;;;;;;19.17;13.17;;;;;;;;;;681645;29;1538;-69
2023/11/30 01:15:30;;;;;;;19.73;13.40;;;;;;;;;;679456;28;1455;-69
2023/11/30 01:15:50;;;;;;;19.77;13.70;;;;;;;;;;676964;29;4416;-69
2023/11/30 01:16:11;;;;;;;20.15;13.57;;;;;;;;;;676166;29;1386;-69
2023/11/30 01:16:31;;;;;;;20.27;13.40;;;;;;;;;;674894;29;3938;-69
2023/11/30 01:16:52;;;;;;;20.87;13.03;;;;;;;;;;677200;28;2849;-69
2023/11/30 01:17:12;;;;;;;19.88;13.27;;;;;;;;;;683181;28;779;-69
2023/11/30 01:17:32;;;;;;;19.98;13.27;;;;;;;;;;684218;28;968;-69
2023/11/30 01:17:53;;;;;;;20.63;13.73;;;;;;;;;;685994;28;2313;-69
2023/11/30 01:18:13;;;;;;;20.13;13.87;;;;;;;;;;687137;28;1506;-69
2023/11/30 01:18:34;;;;;;;19.63;13.38;;;;;;;;;;684010;28;1542;-69
2023/11/30 01:18:54;;;;;;;20.10;13.73;;;;;;;;;;682977;28;4231;-69
2023/11/30 01:19:15;;;;;;;19.80;13.20;;;;;;;;;;681199;29;1464;-69
2023/11/30 01:19:35;;;;;;;19.97;13.03;;;;;;;;;;681106;28;1398;-69
2023/11/30 01:19:55;;;;;;;19.10;13.23;;;;;;;;;;680783;28;1562;-69
2023/11/30 01:20:16;;;;;;;20.53;13.33;;;;;;;;;;681716;29;1266;-69
2023/11/30 01:20:36;;;;;;;19.23;13.15;;;;;;;;;;681947;28;1257;-69
2023/11/30 01:20:57;;;;;;;18.83;13.10;;;;;;;;;;683560;28;1485;-69
2023/11/30 01:21:17;;;;;;;21.47;13.57;;;;;;;;;;685734;28;1113;-69
2023/11/30 01:21:37;;;;;;;20.03;13.53;;;;;;;;;;684026;28;4291;-69
2023/11/30 01:21:58;;;;;;;18.20;12.93;;;;;;;;;;682837;28;2504;-69
2023/11/30 01:22:18;;;;;;;19.50;13.50;;;;;;;;;;687379;28;1354;-69
2023/11/30 01:22:39;;;;;;;18.85;12.98;;;;;;;;;;689651;28;1304;-69
2023/11/30 01:22:59;;;;;;;17.40;12.60;;;;;;;;;;686542;28;1158;-69
2023/11/30 01:23:19;;;;;;;18.73;12.57;;;;;;;;;;688165;28;1255;-69
2023/11/30 01:23:39;;;;;;;18.38;12.52;;;;;;;;;;686050;28;1288;-69
2023/11/30 01:24:00;;;;;;;19.47;12.90;;;;;;;;;;685752;28;2844;-69
2023/11/30 01:24:20;;;;;;;22.27;13.60;;;;;;;;;;689942;28;1288;-69
2023/11/30 01:24:41;;;;;;;18.17;12.50;;;;;;;;;;687861;28;4327;-69
2023/11/30 01:25:01;;;;;;;17.97;12.47;;;;;;;;;;688850;28;2331;-69
2023/11/30 01:25:21;;;;;;;17.57;12.60;;;;;;;;;;686406;28;866;-69
2023/11/30 01:25:42;;;;;;;18.30;12.90;;;;;;;;;;686811;28;1056;-69
2023/11/30 01:26:02;;;;;;;18.52;13.05;;;;;;;;;;682549;28;2396;-69
2023/11/30 01:26:22;;;;;;;17.47;12.63;;;;;;;;;;684392;28;1349;-69
2023/11/30 01:26:43;;;;;;;17.80;12.13;;;;;;;;;;684674;28;1322;-69
2023/11/30 01:27:04;;;;;;;18.40;12.27;;;;;;;;;;683199;28;1765;-69
2023/11/30 01:27:24;;;;;;;20.10;12.80;;;;;;;;;;684359;28;1197;-69
2023/11/30 01:27:45;;;;;;;18.17;12.80;;;;;;;;;;682696;28;4417;-69
2023/11/30 01:28:05;;;;;;;18.48;12.63;;;;;;;;;;680783;29;1277;-69
2023/11/30 01:28:25;;;;;;;19.52;12.95;;;;;;;;;;681284;28;1165;-69
2023/11/30 01:28:46;;;;;;;18.77;12.97;;;;;;;;;;681034;28;1603;-69
2023/11/30 01:29:06;;;;;;;19.27;12.77;;;;;;;;;;681457;28;1356;-71
2023/11/30 01:29:26;;;;;;;20.95;12.77;;;;;;;;;;686617;28;1203;-70
2023/11/30 01:29:47;;;;;;;21.43;13.63;;;;;;;;;;686095;28;1594;-70
2023/11/30 01:30:09;;;;;;;21.58;13.45;;;;;;;;;;689679;28;865;-69
2023/11/30 01:30:30;;;;;;;21.00;13.50;;;;;;;;;;688810;28;984;-69
2023/11/30 01:30:50;;;;;;;20.17;13.50;;;;;;;;;;684520;28;4447;-69
2023/11/30 01:31:10;;;;;;;19.83;13.87;;;;;;;;;;683717;28;1196;-69
2023/11/30 01:31:32;;;;;;;19.80;13.25;;;;;;;;;;683839;28;1284;-69
2023/11/30 01:31:52;;;;;;;19.85;13.07;;;;;;;;;;686118;28;1453;-69
2023/11/30 01:32:13;;;;;;;19.73;13.43;;;;;;;;;;687127;28;1188;-69
2023/11/30 01:32:33;;;;;;;19.63;13.57;;;;;;;;;;687024;28;817;-69
2023/11/30 01:32:53;;;;;;;22.23;14.40;;;;;;;;;;684403;28;2557;-69
2023/11/30 01:33:13;;;;;;;21.47;14.40;;;;;;;;;;684217;28;1303;-69
2023/11/30 01:33:36;;;;;;;20.10;13.50;;;;;;;;;;684334;28;937;-69
2023/11/30 01:33:57;;;;;;;19.88;13.38;;;;;;;;;;685733;28;4601;-69
2023/11/30 01:34:18;;;;;;;21.48;13.35;;;;;;;;;;687390;28;809;-69
2023/11/30 01:34:38;;;;;;;20.25;13.73;;;;;;;;;;686597;28;1326;-69
2023/11/30 01:34:58;;;;;;;20.23;13.50;;;;;;;;;;683368;28;2508;-69
2023/11/30 01:35:19;;;;;;;19.00;13.30;;;;;;;;;;684534;28;2143;-69
2023/11/30 01:35:39;;;;;;;18.25;13.45;;;;;;;;;;687058;28;952;-69
2023/11/30 01:35:59;;;;;;;19.53;13.67;;;;;;;;;;684179;28;1434;-69
2023/11/30 01:36:20;;;;;;;21.20;13.63;;;;;;;;;;685298;28;1149;-69
2023/11/30 01:36:40;;;;;;;20.40;13.50;;;;;;;;;;683954;28;4592;-69
2023/11/30 01:37:00;;;;;;;21.67;14.40;;;;;;;;;;686248;28;1218;-69
2023/11/30 01:37:21;;;;;;;21.98;14.27;;;;;;;;;;686784;28;949;-69
2023/11/30 01:37:41;;;;;;;20.10;14.33;;;;;;;;;;685396;28;1403;-71
2023/11/30 01:38:02;;;;;;;20.67;14.13;;;;;;;;;;685332;28;942;-68
2023/11/30 01:38:22;;;;;;;20.42;14.30;;;;;;;;;;686716;28;912;-69
2023/11/30 01:38:42;;;;;;;21.33;14.23;;;;;;;;;;689949;28;1091;-69
2023/11/30 01:39:03;;;;;;;20.13;13.57;;;;;;;;;;687439;28;2722;-69
2023/11/30 01:39:23;;;;;;;20.48;13.95;;;;;;;;;;689918;28;939;-69
2023/11/30 01:39:44;;;;;;;20.70;13.80;;;;;;;;;;686402;28;4438;-71
2023/11/30 01:40:08;;;;;;;21.57;13.93;;;;;;;;;;682774;28;1488;-69
2023/11/30 01:40:28;;;;;;;21.90;14.45;;;;;;;;;;683064;28;830;-69
2023/11/30 01:40:49;;;;;;;21.27;13.97;;;;;;;;;;681876;28;2368;-69
2023/11/30 01:41:09;;;;;;;20.92;14.35;;;;;;;;;;684640;28;1189;-69
2023/11/30 01:41:30;;;;;;;21.63;14.03;;;;;;;;;;684261;28;1345;-69
2023/11/30 01:41:50;;;;;;;21.65;14.30;;;;;;;;;;684369;28;2301;-69
2023/11/30 01:42:10;;;;;;;20.53;13.43;;;;;;;;;;689254;28;963;-69
2023/11/30 01:42:31;;;;;;;20.30;13.47;;;;;;;;;;689932;28;733;-69
2023/11/30 01:42:51;;;;;;;20.70;13.57;;;;;;;;;;685257;28;4392;-69
2023/11/30 01:43:11;;;;;;;19.27;13.20;;;;;;;;;;688989;28;1394;-69
2023/11/30 01:43:31;;;;;;;20.87;13.47;;;;;;;;;;689037;28;891;-69
2023/11/30 01:43:52;;;;;;;20.50;13.43;;;;;;;;;;688096;28;935;-69
2023/11/30 01:44:12;;;;;;;21.67;13.43;;;;;;;;;;687058;28;1495;-69
2023/11/30 01:44:32;;;;;;;21.27;13.63;;;;;;;;;;687415;28;1290;-69
2023/11/30 01:44:53;;;;;;;18.77;13.03;;;;;;;;;;685823;28;2249;-69
2023/11/30 01:45:13;;;;;;;19.77;13.20;;;;;;;;;;686890;28;1147;-69
2023/11/30 01:45:33;;;;;;;19.20;13.13;;;;;;;;;;687446;28;774;-69
2023/11/30 01:45:53;;;;;;;19.47;13.63;;;;;;;;;;685409;28;4342;-69
2023/11/30 01:46:14;;;;;;;20.67;13.77;;;;;;;;;;687042;28;972;-69
2023/11/30 01:46:36;;;;;;;19.98;14.20;;;;;;;;;;682428;28;1327;-69
2023/11/30 01:46:56;;;;;;;20.08;14.05;;;;;;;;;;682102;28;2134;-70
2023/11/30 01:47:17;;;;;;;20.97;13.97;;;;;;;;;;682583;28;1161;-69
2023/11/30 01:47:37;;;;;;;19.88;13.23;;;;;;;;;;681923;28;735;-69
2023/11/30 01:47:57;;;;;;;20.60;13.70;;;;;;;;;;683381;28;2217;-69
2023/11/30 01:48:18;;;;;;;19.60;13.43;;;;;;;;;;683252;28;1342;-69
2023/11/30 01:48:39;;;;;;;20.15;13.43;;;;;;;;;;681521;28;4483;-69
2023/11/30 01:48:59;;;;;;;20.13;13.65;;;;;;;;;;680652;28;2408;-69
2023/11/30 01:49:20;;;;;;;19.13;13.63;;;;;;;;;;682119;28;1241;-69
2023/11/30 01:49:40;;;;;;;19.80;13.57;;;;;;;;;;682726;28;1392;-69
2023/11/30 01:50:01;;;;;;;21.73;14.27;;;;;;;;;;682855;28;1565;-69
2023/11/30 01:50:22;;;;;;;19.70;13.43;;;;;;;;;;681874;28;979;-69
2023/11/30 01:50:43;;;;;;;18.98;12.95;;;;;;;;;;682010;28;1186;-69
2023/11/30 01:51:05;;;;;;;19.98;13.95;;;;;;;;;;683955;28;1474;-69
2023/11/30 01:51:26;;;;;;;20.92;14.00;;;;;;;;;;687346;28;2049;-69
2023/11/30 01:51:47;;;;;;;21.35;14.10;;;;;;;;;;685408;28;4303;-69
2023/11/30 01:52:07;;;;;;;21.85;14.02;;;;;;;;;;687200;28;1238;-69
2023/11/30 01:52:31;;;;;;;20.63;13.90;;;;;;;;;;686500;28;956;-69
2023/11/30 01:52:51;;;;;;;22.05;14.35;;;;;;;;;;686179;28;1232;-69
2023/11/30 01:53:12;;;;;;;20.07;13.60;;;;;;;;;;688074;28;936;-69
2023/11/30 01:53:33;;;;;;;21.63;14.57;;;;;;;;;;686597;28;1184;-69
2023/11/30 01:53:54;;;;;;;22.13;14.18;;;;;;;;;;688463;28;2270;-69
2023/11/30 01:54:15;;;;;;;22.52;14.00;;;;;;;;;;690016;28;888;-69
2023/11/30 01:54:36;;;;;;;21.73;13.70;;;;;;;;;;686745;28;4557;-70
2023/11/30 01:54:57;;;;;;;20.80;14.27;;;;;;;;;;685960;28;2577;-69
2023/11/30 01:55:17;;;;;;;19.20;13.50;;;;;;;;;;686392;28;1575;-69
2023/11/30 01:55:38;;;;;;;20.48;14.15;;;;;;;;;;686767;28;849;-69
2023/11/30 01:55:58;;;;;;;22.57;14.40;;;;;;;;;;685721;28;2545;-69
2023/11/30 01:56:19;;;;;;;22.10;14.48;;;;;;;;;;686790;28;1351;-69
2023/11/30 01:56:40;;;;;;;19.48;13.50;;;;;;;;;;686780;28;1253;-69
2023/11/30 01:57:02;;;;;;;18.48;13.18;;;;;;;;;;683891;28;1908;-69
2023/11/30 01:57:23;;;;;;;20.00;13.32;;;;;;;;;;682310;28;849;-69
2023/11/30 01:57:43;;;;;;;20.77;14.20;;;;;;;;;;683742;28;4497;-69
2023/11/30 01:58:04;;;;;;;22.07;14.00;;;;;;;;;;683812;28;1351;-69
2023/11/30 01:58:24;;;;;;;19.55;13.07;;;;;;;;;;683848;28;2900;-69
2023/11/30 01:58:45;;;;;;;18.33;12.90;;;;;;;;;;683778;28;1574;-69
2023/11/30 01:59:07;;;;;;;19.67;13.35;;;;;;;;;;683457;28;1200;-69
2023/11/30 01:59:27;;;;;;;20.60;13.43;;;;;;;;;;684671;28;1304;-69
2023/11/30 01:59:48;;;;;;;21.95;13.80;;;;;;;;;;683794;28;2806;-69
2023/11/30 02:00:09;;;;;;;20.45;13.68;;;;;;;;;;683948;28;1193;-69
2023/11/30 02:00:34;;;;;;;22.80;13.45;;;;;;;;;;682983;28;1343;-69
2023/11/30 02:00:57;;;;;;;20.20;13.50;;;;;;;;;;681094;28;4326;-69
2023/11/30 02:01:18;;;;;;;22.00;14.32;;;;;;;;;;684434;28;1420;-69
2023/11/30 02:01:38;;;;;;;20.07;13.63;;;;;;;;;;686412;28;2014;-69
2023/11/30 02:01:58;;;;;;;19.47;13.23;;;;;;;;;;684988;28;2654;-69
2023/11/30 02:02:19;;;;;;;20.73;13.75;;;;;;;;;;687182;28;1146;-69
2023/11/30 02:02:39;;;;;;;20.65;13.63;;;;;;;;;;684172;28;1235;-69
2023/11/30 02:03:00;;;;;;;21.20;13.63;;;;;;;;;;682109;28;1496;-69
2023/11/30 02:03:22;;;;;;;21.75;14.50;;;;;;;;;;683120;28;861;-69
2023/11/30 02:03:42;;;;;;;22.10;14.77;;;;;;;;;;683887;28;4389;-69